createdAt,value
2023-04-09T00:01:16.574Z,57.05
2023-04-09T00:06:17.922Z,57.36
2023-04-09T00:11:19.280Z,57.52
2023-04-09T00:16:20.663Z,57.91
2023-04-09T00:21:22.233Z,58.00
2023-04-09T00:26:23.644Z,58.20
2023-04-09T00:31:25.169Z,58.32
2023-04-09T00:36:27.164Z,58.45
2023-04-09T00:41:28.500Z,58.75
2023-04-09T00:46:31.710Z,58.80
2023-04-09T00:51:33.519Z,58.90
2023-04-09T00:56:36.259Z,59.41
2023-04-09T01:01:37.718Z,59.32
2023-04-09T01:06:53.735Z,59.45
2023-04-09T01:12:31.920Z,59.26
2023-04-09T01:17:55.569Z,59.54
2023-04-09T01:23:34.740Z,59.81
2023-04-09T01:28:41.692Z,59.71
2023-04-09T01:33:43.935Z,59.69
2023-04-09T01:38:48.497Z,60.01
2023-04-09T01:43:51.866Z,59.92
2023-04-09T01:48:55.153Z,60.30
2023-04-09T01:53:56.637Z,60.44
2023-04-09T01:58:57.955Z,60.45
2023-04-09T02:04:05.316Z,60.66
2023-04-09T02:09:08.937Z,60.68
2023-04-09T02:14:12.322Z,60.80
2023-04-09T02:19:13.668Z,60.81
2023-04-09T02:24:15.151Z,61.14
2023-04-09T02:29:16.554Z,61.04
2023-04-09T02:34:19.429Z,61.56
2023-04-09T02:39:20.770Z,61.25
2023-04-09T02:44:22.138Z,61.02
2023-04-09T02:49:23.665Z,61.53
2023-04-09T02:54:25.052Z,61.41
2023-04-09T02:59:26.420Z,61.48
2023-04-09T03:04:27.807Z,61.44
2023-04-09T03:09:30.278Z,61.86
2023-04-09T03:14:31.660Z,61.62
2023-04-09T03:19:33.592Z,62.05
2023-04-09T03:24:34.970Z,61.92
2023-04-09T03:29:36.359Z,61.78
2023-04-09T03:34:37.719Z,61.54
2023-04-09T03:39:39.180Z,61.72
2023-04-09T03:44:40.521Z,61.77
2023-04-09T03:49:41.893Z,61.83
2023-04-09T03:54:43.500Z,61.92
2023-04-09T03:59:45.325Z,62.13
2023-04-09T04:04:46.737Z,61.96
2023-04-09T04:09:48.127Z,61.74
2023-04-09T04:14:49.446Z,61.78
2023-04-09T04:19:50.788Z,62.09
2023-04-09T04:24:52.108Z,62.48
2023-04-09T04:29:53.440Z,62.28
2023-04-09T04:34:54.843Z,62.55
2023-04-09T04:39:56.164Z,62.82
2023-04-09T04:57:09.298Z,62.24
2023-04-09T05:02:11.586Z,62.53
2023-04-09T05:07:13.686Z,62.36
2023-04-09T05:12:18.153Z,62.81
2023-04-09T05:22:36.900Z,62.88
2023-04-09T05:27:54.771Z,62.83
2023-04-09T05:32:58.766Z,62.74
2023-04-09T05:38:00.662Z,62.60
2023-04-09T05:43:02.776Z,62.66
2023-04-09T05:48:04.882Z,62.99
2023-04-09T05:53:06.638Z,62.95
2023-04-09T06:14:40.892Z,62.90
2023-04-09T06:19:43.354Z,63.12
2023-04-09T06:51:31.681Z,62.04
2023-04-09T06:56:34.285Z,62.27
2023-04-09T07:01:37.584Z,61.89
2023-04-09T07:06:40.283Z,61.60
2023-04-09T07:11:41.684Z,61.27
2023-04-09T07:16:44.202Z,61.39
2023-04-09T07:21:45.623Z,61.25
2023-04-09T07:26:46.984Z,61.00
2023-04-09T07:31:48.448Z,60.77
2023-04-09T07:36:50.149Z,60.96
2023-04-09T07:41:51.456Z,60.55
2023-04-09T07:46:52.913Z,60.06
2023-04-09T07:51:54.290Z,59.79
2023-04-09T07:56:56.583Z,59.29
2023-04-09T08:01:58.067Z,59.04
2023-04-09T08:06:59.503Z,58.80
2023-04-09T08:12:01.158Z,58.27
2023-04-09T08:17:02.706Z,56.97
2023-04-09T08:22:04.164Z,57.11
2023-04-09T08:27:05.556Z,56.55
2023-04-09T08:32:07.013Z,56.14
2023-04-09T08:37:08.460Z,55.72
2023-04-09T08:42:12.523Z,55.48
2023-04-09T08:47:14.355Z,54.18
2023-04-09T08:52:17.601Z,53.62
2023-04-09T08:57:18.931Z,53.53
2023-04-09T09:02:20.438Z,53.15
2023-04-09T09:07:21.922Z,53.17
2023-04-09T09:12:31.854Z,52.46
2023-04-09T09:17:34.490Z,52.64
2023-04-09T09:22:55.205Z,51.86
2023-04-09T09:28:07.543Z,52.09
2023-04-09T09:33:10.745Z,51.66
2023-04-09T09:38:12.149Z,51.72
2023-04-09T09:43:14.716Z,51.33
2023-04-09T09:48:16.443Z,51.09
2023-04-09T09:53:22.947Z,50.16
2023-04-09T09:58:31.843Z,49.66
2023-04-09T10:03:37.493Z,50.19
2023-04-09T10:08:42.156Z,49.14
2023-04-09T10:13:49.660Z,49.27
2023-04-09T10:18:51.572Z,49.06
2023-04-09T10:23:53.947Z,48.35
2023-04-09T10:29:09.020Z,48.21
2023-04-09T10:34:11.015Z,48.03
2023-04-09T10:39:16.013Z,47.33
2023-04-09T10:44:26.246Z,46.68
2023-04-09T10:49:28.015Z,45.88
2023-04-09T10:54:35.163Z,45.01
2023-04-09T10:59:37.277Z,46.72
2023-04-09T11:05:02.419Z,45.43
2023-04-09T11:10:04.097Z,44.98
2023-04-09T11:15:05.972Z,44.14
2023-04-09T11:20:07.578Z,43.60
2023-04-09T11:25:09.227Z,43.89
2023-04-09T11:30:10.960Z,43.82
2023-04-09T11:35:14.237Z,43.14
2023-04-09T11:40:26.571Z,42.07
2023-04-09T11:45:29.586Z,41.69
2023-04-09T11:50:31.970Z,41.66
2023-04-09T11:55:33.554Z,41.32
2023-04-09T12:00:34.947Z,40.90
2023-04-09T12:05:37.126Z,40.27
2023-04-09T12:10:39.997Z,39.78
2023-04-09T12:15:43.389Z,39.02
2023-04-09T12:20:47.444Z,38.27
2023-04-09T12:25:48.782Z,38.47
2023-04-09T12:30:50.931Z,38.40
2023-04-09T12:35:52.343Z,38.63
2023-04-09T12:40:53.791Z,38.49
2023-04-09T12:45:55.200Z,38.29
2023-04-09T12:50:56.549Z,38.48
2023-04-09T12:55:58.240Z,38.50
2023-04-09T13:00:59.680Z,38.16
2023-04-09T13:06:01.138Z,36.93
2023-04-09T13:11:02.764Z,36.07
2023-04-09T13:16:04.472Z,35.33
2023-04-09T13:21:06.046Z,34.94
2023-04-09T13:26:07.383Z,35.47
2023-04-09T13:31:08.792Z,34.76
2023-04-09T13:36:10.515Z,34.81
2023-04-09T13:41:11.972Z,34.64
2023-04-09T13:46:13.448Z,34.64
2023-04-09T13:51:14.890Z,34.41
2023-04-09T13:56:16.694Z,33.76
2023-04-09T14:01:18.164Z,33.78
2023-04-09T14:06:19.592Z,33.71
2023-04-09T14:11:21.158Z,33.36
2023-04-09T14:16:23.599Z,32.90
2023-04-09T14:21:26.502Z,33.00
2023-04-09T14:26:28.966Z,33.03
2023-04-09T14:31:30.627Z,32.78
2023-04-09T14:36:32.171Z,32.73
2023-04-09T14:41:34.216Z,32.64
2023-04-09T14:46:36.587Z,32.83
2023-04-09T14:51:38.022Z,32.15
2023-04-09T14:56:39.443Z,30.85
2023-04-09T15:01:40.889Z,30.65
2023-04-09T15:06:42.395Z,30.91
2023-04-09T15:11:43.763Z,30.46
2023-04-09T15:16:45.282Z,30.30
2023-04-09T15:21:46.608Z,29.65
2023-04-09T15:26:47.962Z,29.07
2023-04-09T15:31:53.053Z,29.01
2023-04-09T15:36:54.503Z,29.21
2023-04-09T15:41:58.781Z,29.33
2023-04-09T15:47:00.149Z,29.98
2023-04-09T15:52:01.486Z,30.74
2023-04-09T15:57:04.152Z,30.50
2023-04-09T16:02:06.018Z,30.41
2023-04-09T16:07:07.703Z,30.16
2023-04-09T16:12:09.191Z,30.48
2023-04-09T16:17:10.790Z,30.03
2023-04-09T16:22:12.497Z,30.50
2023-04-09T16:27:14.383Z,29.83
2023-04-09T16:32:15.972Z,29.04
2023-04-09T16:37:17.312Z,28.66
2023-04-09T16:42:18.663Z,28.29
2023-04-09T16:47:20.163Z,28.58
2023-04-09T16:52:21.687Z,28.43
2023-04-09T16:57:22.996Z,28.81
2023-04-09T17:02:24.695Z,28.82
2023-04-09T17:07:26.361Z,28.60
2023-04-09T17:12:27.724Z,29.07
2023-04-09T17:17:29.161Z,29.29
2023-04-09T17:22:30.553Z,29.85
2023-04-09T17:27:32.029Z,30.07
2023-04-09T17:32:33.384Z,30.21
2023-04-09T17:37:34.892Z,30.58
2023-04-09T17:42:36.236Z,31.24
2023-04-09T17:47:38.996Z,31.52
2023-04-09T17:52:40.624Z,31.84
2023-04-09T17:57:42.680Z,32.75
2023-04-09T18:02:44.912Z,32.68
2023-04-09T18:07:46.430Z,33.26
2023-04-09T18:12:47.728Z,34.23
2023-04-09T18:17:49.238Z,34.97
2023-04-09T18:22:50.720Z,36.04
2023-04-09T18:27:52.086Z,36.68
2023-04-09T18:32:53.770Z,37.58
2023-04-09T18:37:55.201Z,38.67
2023-04-09T18:42:56.746Z,39.43
2023-04-09T18:47:58.116Z,40.11
2023-04-09T18:52:59.497Z,40.86
2023-04-09T18:58:01.951Z,41.54
2023-04-09T19:03:04.521Z,42.34
2023-04-09T19:08:06.833Z,43.40
2023-04-09T19:13:08.237Z,43.93
2023-04-09T19:18:09.628Z,44.38
2023-04-09T19:23:10.966Z,45.20
2023-04-09T19:28:12.294Z,45.08
2023-04-09T19:33:13.625Z,45.88
2023-04-09T19:38:16.283Z,45.80
2023-04-09T19:43:17.776Z,46.69
2023-04-09T19:48:19.189Z,47.18
2023-04-09T19:53:20.566Z,47.46
2023-04-09T19:58:22.114Z,47.97
2023-04-09T20:03:23.593Z,49.43
2023-04-09T20:08:25.054Z,49.62
2023-04-09T20:13:26.618Z,49.34
2023-04-09T20:18:28.576Z,50.19
2023-04-09T20:23:30.221Z,50.31
2023-04-09T20:28:31.824Z,50.65
2023-04-09T20:33:33.944Z,51.15
2023-04-09T20:38:35.305Z,51.86
2023-04-09T20:43:38.252Z,52.55
2023-04-09T20:48:39.779Z,52.23
2023-04-09T20:53:41.135Z,52.56
2023-04-09T20:58:42.491Z,52.93
2023-04-09T21:03:44.289Z,53.20
2023-04-09T21:08:45.912Z,53.42
2023-04-09T21:13:54.478Z,53.59
2023-04-09T21:18:57.096Z,53.83
2023-04-09T21:23:58.432Z,54.16
2023-04-09T21:28:59.866Z,54.90
2023-04-09T21:34:01.246Z,54.44
2023-04-09T21:39:03.709Z,54.72
2023-04-09T21:44:08.125Z,54.95
2023-04-09T21:49:09.585Z,55.34
2023-04-09T21:54:11.251Z,55.27
2023-04-09T21:59:12.599Z,55.82
2023-04-09T22:04:14.217Z,55.86
2023-04-09T22:09:15.858Z,55.55
2023-04-09T22:14:17.822Z,56.28
2023-04-09T22:19:19.147Z,56.53
2023-04-09T22:24:27.045Z,56.58
2023-04-09T22:29:29.301Z,56.72
2023-04-09T22:34:30.658Z,56.73
2023-04-09T22:39:31.998Z,57.04
2023-04-09T22:44:33.388Z,56.63
2023-04-09T22:49:34.923Z,56.80
2023-04-09T22:54:37.868Z,57.66
2023-04-09T22:59:40.678Z,57.56
2023-04-09T23:04:42.480Z,57.85
2023-04-09T23:09:45.148Z,58.20
2023-04-09T23:14:48.234Z,57.93
2023-04-09T23:19:52.287Z,58.25
2023-04-09T23:24:53.627Z,57.66
2023-04-09T23:29:56.434Z,58.31
2023-04-09T23:34:58.827Z,58.51
2023-04-09T23:40:00.334Z,58.31
2023-04-09T23:45:05.944Z,58.83
2023-04-09T23:50:08.217Z,59.08
2023-04-09T23:55:10.582Z,58.55
